Terminal Aerodrome Forecast
Issued by NWS

Home | Current Version | Previous Version | Text Only | Print | Product List | Glossary On
Versions: 1 2 3 4 5 6 7 8 9 10 11 12 13 14 15 16 17 18 19 20 21 22 23 24 25 26 27
000
FTUS41 KOKX 271543 AAB
TAFSWF
TAF AMD
KSWF 271543Z 2716/2818 22005KT P6SM BKN120
     FM271800 23009KT P6SM VCSH BKN100 BKN250
     FM280000 VRB04KT P6SM FEW050 BKN250
     FM280300 VRB02KT 4SM BR BKN200
      AMD NOT SKED=

USA.gov is the U.S. government's official web portal to all federal, state and local government web resources and services.